tititudorancea.com
Station Historical Data
Daily Summary for January 21, 2018 Units:  Metric    English   Both
« Previous Day
Next Day »
Daily Weekly Monthly Yearly Custom
  High: Low: Average:
Temperature: -17.8 °C 17.2 °C 27.2 °C
Dew Point: -17.8 °C 9.3 °C 14.1 °C
Humidity: Humidity % 21 % 48 %
Wind Speed: 0 km/h 0 km/h 7.9 km/h
Wind Gust: 0 km/h - -
Wind:- - SSW
Pressure: 0 hPa 1003.6 hPa -
Precipitation: 0 mm    
Historical Graphs
 
 
Ararat weather Find more about Weather in Ararat, AU


 



 


Tabular Data for January 21, 2018
Time Temperature Dew Point Pressure Wind Wind Speed Wind Gust Humidity Rainfall Rate (Hourly)
-17.8 °C -17.8 °C 0 hPa Calm     Humidity % 0 mm
00:02 24.3 °C 10.9 °C 1009.4 hPa North 5 km/h 9.3 km/h 43 % 0 mm
00:07 24.5 °C 10.7 °C 1009.7 hPa SSW 5 km/h 5.6 km/h 42 % 0 mm
00:12 24.7 °C 10.9 °C 1009.7 hPa SSW 4.8 km/h 9.3 km/h 42 % 0 mm
00:17 24.8 °C 10.7 °C 1009.7 hPa SSW 9.8 km/h 9.8 km/h 41 % 0 mm
00:22 24.9 °C 10.7 °C 1009.7 hPa SSW 3.5 km/h 5.6 km/h 41 % 0 mm
00:27 24.9 °C 10.7 °C 1009.7 hPa SSW 7.6 km/h 7.6 km/h 41 % 0 mm
00:32 24.9 °C 11.1 °C 1009.7 hPa SSW 5.5 km/h 8 km/h 42 % 0 mm
00:37 24.9 °C 10.7 °C 1009.7 hPa SSW 10.1 km/h 14.8 km/h 41 % 0 mm
00:42 24.9 °C 10.8 °C 1009.7 hPa South 5.3 km/h 7.4 km/h 41 % 0 mm
00:47 24.9 °C 11.1 °C 1009.4 hPa South 8.2 km/h 11.1 km/h 42 % 0 mm
00:52 24.7 °C 11.3 °C 1009.4 hPa South 12.1 km/h 18.5 km/h 43 % 0 mm
00:57 24.5 °C 11.4 °C 1009 hPa South 9.7 km/h 13 km/h 44 % 0 mm
01:02 24.2 °C 11.9 °C 1009 hPa South 9.3 km/h 14.8 km/h 46 % 0 mm
01:07 23.7 °C 12.6 °C 1009 hPa North 10.6 km/h 14.8 km/h 50 % 0 mm
01:12 23 °C 12.9 °C 1009.4 hPa SSW 12.9 km/h 18.5 km/h 53 % 0 mm
01:17 22.7 °C 13.2 °C 1009 hPa SSW 6.9 km/h 13 km/h 55 % 0 mm
01:22 22.5 °C 13 °C 1008.7 hPa South 8.2 km/h 11.1 km/h 55 % 0 mm
01:27 22.6 °C 12.8 °C 1009 hPa SSW 11.3 km/h 18.5 km/h 54 % 0 mm
01:32 22.4 °C 13.4 °C 1009 hPa SSW 6.4 km/h 18.5 km/h 57 % 0 mm
01:37 22.3 °C 13.1 °C 1008.4 hPa South 4 km/h 18.5 km/h 56 % 0 mm
01:42 22.3 °C 13.1 °C 1008.4 hPa North 10.1 km/h 13 km/h 56 % 0 mm
01:43 22.3 °C 13.3 °C 1008.4 hPa South 11.7 km/h 14.8 km/h 57 % 0 mm
01:48 22.1 °C 13.2 °C 1008.4 hPa SSW 11.1 km/h 16.7 km/h 57 % 0 mm
01:53 22.1 °C 12.9 °C 1008.7 hPa SSW 6.4 km/h 11.1 km/h 56 % 0 mm
01:58 22.2 °C 12.9 °C 1009 hPa South 4.2 km/h 7.4 km/h 56 % 0 mm
02:03 22.2 °C 12.7 °C 1008.7 hPa South 1.9 km/h 4.8 km/h 55 % 0 mm
02:08 22.3 °C 13.1 °C 1009 hPa SSW 5.6 km/h 9.7 km/h 56 % 0 mm
02:13 22.2 °C 13.3 °C 1009 hPa Calm     57 % 0 mm
02:18 22.1 °C 13.2 °C 1009 hPa South 2.7 km/h 5.6 km/h 57 % 0 mm
02:23 22.1 °C 13.4 °C 1009 hPa Calm     58 % 0 mm
02:28 21.9 °C 13.3 °C 1009 hPa Calm     58 % 0 mm
02:33 21.8 °C 13.2 °C 1009.4 hPa SSW 4.7 km/h 5.6 km/h 58 % 0 mm
02:38 21.8 °C 13.2 °C 1009.4 hPa SSW 0.8 km/h 3.7 km/h 58 % 0 mm
02:43 21.9 °C 13 °C 1009.4 hPa South 4.5 km/h 5.6 km/h 57 % 0 mm
02:48 21.9 °C 13.1 °C 1009.4 hPa SSW 1.1 km/h 3.7 km/h 57 % 0 mm
09:02 17.2 °C 15.6 °C 1008.7 hPa SSW 10.3 km/h 13 km/h 90 % 0 mm
09:06 17.4 °C 15.9 °C 1009 hPa SSW 9.7 km/h 13 km/h 91 % 0 mm
09:12 17.7 °C 16 °C 1008.7 hPa South 10.5 km/h 11.3 km/h 90 % 0 mm
09:17 17.9 °C 16.1 °C 1008.7 hPa North 11.6 km/h 13 km/h 89 % 0 mm
09:22 18.1 °C 16.1 °C 1008.4 hPa South 6.8 km/h 11.1 km/h 88 % 0 mm
09:27 18.4 °C 16.2 °C 1008.4 hPa South 8.5 km/h 11.1 km/h 87 % 0 mm
09:32 18.8 °C 16.2 °C 1008.4 hPa South 7.2 km/h 12.9 km/h 85 % 0 mm
09:37 18.9 °C 16.2 °C 1008.4 hPa South 8 km/h 13 km/h 84 % 0 mm
09:42 19.3 °C 16.4 °C 1008.4 hPa SSE 9.7 km/h 13 km/h 83 % 0 mm
09:47 19.6 °C 16.4 °C 1008.4 hPa South 6.8 km/h 9.7 km/h 82 % 0 mm
09:52 19.9 °C 16.4 °C 1008 hPa South 8.9 km/h 18.5 km/h 80 % 0 mm
09:57 20.4 °C 16.4 °C 1008.4 hPa South 13.8 km/h 16.7 km/h 78 % 0 mm
10:02 20.8 °C 16.6 °C 1008.4 hPa SSE 8.9 km/h 14.8 km/h 77 % 0 mm
10:07 21.1 °C 16.5 °C 1008 hPa South 7.9 km/h 11.1 km/h 75 % 0 mm
10:12 21.6 °C 16.7 °C 1008 hPa SSE 10.6 km/h 16.7 km/h 74 % 0 mm
10:17 21.9 °C 16.6 °C 1008 hPa South 8.9 km/h 11.1 km/h 72 % 0 mm
10:22 22.1 °C 16.3 °C 1008 hPa SSW 11.6 km/h 18.5 km/h 70 % 0 mm
10:27 22.1 °C 16.2 °C 1008 hPa SSW 8.2 km/h 11.3 km/h 69 % 0 mm
10:32 22.3 °C 16.4 °C 1008 hPa South 9.2 km/h 13 km/h 69 % 0 mm
10:37 22.6 °C 16.4 °C 1008 hPa South 7.6 km/h 11.1 km/h 68 % 0 mm
10:42 23 °C 16.8 °C 1007.7 hPa SSE 10 km/h 16.7 km/h 68 % 0 mm
10:47 23.7 °C 16.7 °C 1007.7 hPa SSE 11.3 km/h 16.7 km/h 65 % 0 mm
10:52 24.1 °C 16.6 °C 1008 hPa South 6.9 km/h 9.3 km/h 63 % 0 mm
10:57 23.9 °C 16.2 °C 1007.7 hPa SSW 7.9 km/h 9.3 km/h 62 % 0 mm
11:02 24.3 °C 16.6 °C 1007.7 hPa South 4.2 km/h 9.3 km/h 62 % 0 mm
11:07 24.6 °C 16.6 °C 1007.7 hPa SSW 4.3 km/h 8 km/h 61 % 0 mm
11:12 25.1 °C 16.6 °C 1007.7 hPa South 9.2 km/h 13 km/h 59 % 0 mm
11:17 25.6 °C 16.2 °C 1007.7 hPa SSW 9.5 km/h 13 km/h 56 % 0 mm
11:22 26.2 °C 16.4 °C 1007.7 hPa SSW 10.1 km/h 13 km/h 55 % 0 mm
11:27 26.6 °C 16.5 °C 1007.7 hPa SSW 5.3 km/h 9.3 km/h 54 % 0 mm
11:32 27 °C 16.6 °C 1007.7 hPa SSW 6.6 km/h 11.1 km/h 53 % 0 mm
11:37 27.4 °C 16.1 °C 1007.7 hPa South 2.1 km/h 6.4 km/h 50 % 0 mm
11:42 27.9 °C 16.6 °C 1007.3 hPa SSE 6.4 km/h 13 km/h 50 % 0 mm
11:47 28.3 °C 15.9 °C 1007.3 hPa SSW 10.9 km/h 14.8 km/h 47 % 0 mm
11:52 28.3 °C 16.3 °C 1007.3 hPa SSW 4.3 km/h 5.6 km/h 48 % 0 mm
11:57 28.5 °C 15.8 °C 1007.3 hPa SSW 4 km/h 6.4 km/h 46 % 0 mm
12:02 28.8 °C 15.7 °C 1007.3 hPa SSW 5 km/h 7.4 km/h 45 % 0 mm
12:07 29.4 °C 15.5 °C 1007 hPa SSW 1.8 km/h 4.8 km/h 43 % 0 mm
12:12 30.2 °C 15.9 °C 1007 hPa SSW 2.1 km/h 5.6 km/h 42 % 0 mm
12:17 30.5 °C 15.4 °C 1007 hPa SSW 2.9 km/h 5.6 km/h 40 % 0 mm
12:22 31.2 °C 15.9 °C 1006.7 hPa SSE 7.4 km/h 14.8 km/h 40 % 0 mm
12:27 31.3 °C 16.1 °C 1006.7 hPa SSE 1.1 km/h 8 km/h 40 % 0 mm
12:32 31.8 °C 15.3 °C 1006.7 hPa SSE 3.2 km/h 6.4 km/h 37 % 0 mm
12:37 32.3 °C 14.9 °C 1006.7 hPa SSE 3.9 km/h 6.4 km/h 35 % 0 mm
12:42 32.4 °C 14.9 °C 1006.7 hPa West 4.8 km/h 11.3 km/h 35 % 0 mm
12:47 32 °C 14.6 °C 1006.3 hPa Calm   1.9 km/h 35 % 0 mm
12:52 32.3 °C 14.9 °C 1006.3 hPa North 0.2 km/h 3.2 km/h 35 % 0 mm
12:57 32.4 °C 14.6 °C 1006.3 hPa WSW 2.9 km/h 9.3 km/h 34 % 0 mm
13:02 32.7 °C 14.8 °C 1006.3 hPa WSW 1.4 km/h 5.6 km/h 34 % 0 mm
13:07 32.9 °C 14.6 °C 1006.3 hPa SW 6.3 km/h 9.3 km/h 33 % 0 mm
13:12 33.5 °C 14.1 °C 1006 hPa SSE 6.8 km/h 11.1 km/h 31 % 0 mm
13:17 34 °C 14.5 °C 1006.3 hPa SSE 1 km/h 5.6 km/h 31 % 0 mm
13:22 34.2 °C 12.6 °C 1006 hPa NW 9 km/h 13 km/h 27 % 0 mm
13:27 33.8 °C 12.2 °C 1006 hPa West 5.1 km/h 12.9 km/h 27 % 0 mm
13:32 33.4 °C 12.4 °C 1006 hPa West 1.6 km/h 5.6 km/h 28 % 0 mm
13:37 33.7 °C 12.1 °C 1006 hPa West 6.4 km/h 9.3 km/h 27 % 0 mm
13:42 33.9 °C 12.3 °C 1006 hPa North 11.7 km/h 16.7 km/h 27 % 0 mm
13:47 34 °C 12.4 °C 1006 hPa WSW 8.9 km/h 14.8 km/h 27 % 0 mm
13:52 34.4 °C 14.3 °C 1006 hPa SSW 12.1 km/h 18.5 km/h 30 % 0 mm
13:57 33.9 °C 13.9 °C 1005.6 hPa SSW 15.4 km/h 20.4 km/h 30 % 0 mm
14:02 33 °C 14.1 °C 1005.6 hPa SW 14.2 km/h 18.5 km/h 32 % 0 mm
14:07 32.6 °C 14.7 °C 1005.6 hPa South 8.4 km/h 11.1 km/h 34 % 0 mm
14:12 32.4 °C 15 °C 1005.6 hPa South 12.7 km/h 20.4 km/h 35 % 0 mm
14:17 32.1 °C 15.2 °C 1005.6 hPa North 12.2 km/h 18.5 km/h 36 % 0 mm
14:22 32.1 °C 14.7 °C 1005.6 hPa SSW 9 km/h 14.8 km/h 35 % 0 mm
14:27 31.9 °C 14.6 °C 1005.6 hPa SSW 11.1 km/h 18.5 km/h 35 % 0 mm
14:32 31.9 °C 14.9 °C 1005.6 hPa SSW 7.9 km/h 20.4 km/h 36 % 0 mm
14:37 31.8 °C 14.9 °C 1005.6 hPa SSW 10.3 km/h 18.5 km/h 36 % 0 mm
14:42 31.9 °C 15 °C 1005.6 hPa SSW 12.6 km/h 18.5 km/h 36 % 0 mm
14:47 31.8 °C 14.9 °C 1005.6 hPa SW 14.3 km/h 20.4 km/h 36 % 0 mm
14:52 31.8 °C 14.9 °C 1005.6 hPa SSW 11.3 km/h 18.5 km/h 36 % 0 mm
14:57 31.6 °C 14.7 °C 1005.6 hPa South 11.1 km/h 16.7 km/h 36 % 0 mm
15:02 31.6 °C 15.2 °C 1005.6 hPa South 12.1 km/h 18.5 km/h 37 % 0 mm
15:07 32.2 °C 15.3 °C 1005.3 hPa South 10.3 km/h 18.5 km/h 36 % 0 mm
15:12 32.7 °C 14.8 °C 1005.3 hPa SSW 15.4 km/h 20.4 km/h 34 % 0 mm
15:17 32.6 °C 15.2 °C 1005.3 hPa South 6.9 km/h 13 km/h 35 % 0 mm
15:22 33.2 °C 15.2 °C 1005.3 hPa SW 12.9 km/h 22.2 km/h 34 % 0 mm
15:27 33.2 °C 14.3 °C 1005.3 hPa SW 10.8 km/h 16.1 km/h 32 % 0 mm
15:32 33.2 °C 14.3 °C 1005.3 hPa SW 2.4 km/h 5.6 km/h 32 % 0 mm
15:37 33.4 °C 14.4 °C 1005.3 hPa SSW 9.2 km/h 16.7 km/h 32 % 0 mm
15:42 33.4 °C 14.9 °C 1005.3 hPa SSW 5.3 km/h 11.1 km/h 33 % 0 mm
15:47 33.6 °C 14.1 °C 1005 hPa SSW 5 km/h 8 km/h 31 % 0 mm
15:52 33.9 °C 13.4 °C 1005 hPa SSW 5.1 km/h 9.7 km/h 29 % 0 mm
15:57 34.2 °C 13.1 °C 1005 hPa SW 6.1 km/h 9.7 km/h 28 % 0 mm
16:02 34.1 °C 12.9 °C 1005 hPa SW 6.9 km/h 7.4 km/h 28 % 0 mm
16:07 34 °C 12.9 °C 1005 hPa SW 9.3 km/h 24.1 km/h 28 % 0 mm
16:12 33.9 °C 12.8 °C 1005 hPa SW 8.7 km/h 16.7 km/h 28 % 0 mm
16:17 34.2 °C 12.6 °C 1004.6 hPa SW 7.2 km/h 11.1 km/h 27 % 0 mm
16:22 34.8 °C 12.5 °C 1004.6 hPa North 18.5 km/h 29.6 km/h 26 % 0 mm
16:27 35.4 °C 11.1 °C 1004.6 hPa North 14.6 km/h 16.7 km/h 23 % 0 mm
16:32 34.8 °C 11.3 °C 1004.6 hPa NW 5.6 km/h 9.7 km/h 24 % 0 mm
16:37 34.8 °C 11.2 °C 1004.6 hPa WSW 9.2 km/h 16.7 km/h 24 % 0 mm
16:52 34.4 °C 12.2 °C 1004.6 hPa SSW 9.3 km/h 14.8 km/h 26 % 0 mm
16:57 34.2 °C 11.3 °C 1004.6 hPa South 5 km/h 7.4 km/h 25 % 0 mm
17:02 34.3 °C 12 °C 1004.6 hPa SSW 4.5 km/h 11.1 km/h 26 % 0 mm
17:15 35.4 °C 10.5 °C 1004.3 hPa SW 2.7 km/h 5.6 km/h 22 % 0 mm
17:20 35.9 °C 10.2 °C 1003.9 hPa WSW 14.6 km/h 22.2 km/h 21 % 0 mm
17:25 35.4 °C 9.7 °C 1003.9 hPa SW 16.1 km/h 27.8 km/h 21 % 0 mm
17:30 35.2 °C 10.2 °C 1003.9 hPa SW 2.9 km/h 13 km/h 22 % 0 mm
17:40 35.6 °C 10.6 °C 1003.9 hPa West 14.3 km/h 20.4 km/h 22 % 0 mm
17:45 35.3 °C 10.3 °C 1003.9 hPa SW 19.8 km/h 27.8 km/h 22 % 0 mm
17:50 34.7 °C 10.6 °C 1003.9 hPa SSW 12.6 km/h 18.5 km/h 23 % 0 mm
17:55 34.8 °C 10.6 °C 1003.6 hPa SW 10.1 km/h 16.7 km/h 23 % 0 mm
18:00 35.2 °C 10.9 °C 1003.9 hPa SW 19 km/h 20.4 km/h 23 % 0 mm
18:05 34.7 °C 10.5 °C 1003.9 hPa SW 18.3 km/h 24.1 km/h 23 % 0 mm
18:10 34.3 °C 10.2 °C 1003.9 hPa SSW 14.3 km/h 18.5 km/h 23 % 0 mm
18:15 34.2 °C 10.1 °C 1003.6 hPa SW 11.1 km/h 16.7 km/h 23 % 0 mm
18:30 34.2 °C 10.1 °C 1003.9 hPa SW 12.9 km/h 18.5 km/h 23 % 0 mm
18:35 33.9 °C 10.5 °C 1003.9 hPa SW 11.1 km/h 13 km/h 24 % 0 mm
18:40 33.7 °C 10.3 °C 1003.9 hPa WSW 8.4 km/h 13 km/h 24 % 0 mm
18:45 33.6 °C 10.2 °C 1004.3 hPa SW 13.2 km/h 18.5 km/h 24 % 0 mm
18:50 33.4 °C 9.4 °C 1004.3 hPa North 9 km/h 16.7 km/h 23 % 0 mm
18:55 33.4 °C 10.1 °C 1003.9 hPa SW 6.9 km/h 11.1 km/h 24 % 0 mm
19:00 33.3 °C 10 °C 1003.9 hPa SSW 9.5 km/h 13 km/h 24 % 0 mm
19:05 33.3 °C 10 °C 1003.9 hPa SW 11.9 km/h 16.7 km/h 24 % 0 mm
19:10 33.2 °C 9.9 °C 1004.3 hPa WSW 7.7 km/h 11.1 km/h 24 % 0 mm
19:15 33.2 °C 9.9 °C 1004.3 hPa WSW 8 km/h 9.3 km/h 24 % 0 mm
19:25 33.2 °C 9.3 °C 1004.3 hPa SW 9.5 km/h 13 km/h 23 % 0 mm
19:30 33.2 °C 9.3 °C 1004.3 hPa WSW 5.1 km/h 13 km/h 23 % 0 mm
19:35 33.2 °C 9.9 °C 1004.3 hPa SW 11.3 km/h 14.8 km/h 24 % 0 mm
19:45 32.7 °C 10.1 °C 1004.6 hPa SW 6.1 km/h 9.7 km/h 25 % 0 mm
19:50 32.4 °C 11 °C 1004.6 hPa South 13.5 km/h 14.5 km/h 27 % 0 mm
19:55 31.8 °C 13.1 °C 1004.6 hPa SSW 14 km/h 20.4 km/h 32 % 0 mm
20:00 31.2 °C 13.9 °C 1004.6 hPa SSW 12.4 km/h 16.7 km/h 35 % 0 mm
20:05 30.5 °C 14.6 °C 1004.6 hPa SSW 15.1 km/h 25.9 km/h 38 % 0 mm
20:10 30.1 °C 14.6 °C 1005 hPa SSW 11.6 km/h 14.8 km/h 39 % 0 mm
20:15 29.6 °C 15.3 °C 1005 hPa SSW 8 km/h 14.8 km/h 42 % 0 mm
20:20 29.2 °C 15.7 °C 1005 hPa South 14.3 km/h 20.4 km/h 44 % 0 mm
20:25 28.6 °C 16.5 °C 1005 hPa South 10.1 km/h 18.5 km/h 48 % 0 mm
20:30 28.1 °C 16.7 °C 1005.3 hPa South 12.4 km/h 16.7 km/h 50 % 0 mm
20:35 27.5 °C 16.8 °C 1005.3 hPa South 4 km/h 13 km/h 52 % 0 mm
20:40 27.1 °C 16.7 °C 1005.3 hPa South 7.1 km/h 16.7 km/h 53 % 0 mm
20:45 26.7 °C 16.9 °C 1005.3 hPa South 3.5 km/h 13 km/h 55 % 0 mm
20:50 26.5 °C 17 °C 1005.3 hPa SSE 9.8 km/h 14.8 km/h 56 % 0 mm
20:55 26.1 °C 16.9 °C 1005.3 hPa SSE 4.7 km/h 11.1 km/h 57 % 0 mm
21:00 25.7 °C 16.8 °C 1005.3 hPa SSE 10.1 km/h 14.8 km/h 58 % 0 mm
21:05 25.4 °C 17.1 °C 1005.3 hPa SSE 5.8 km/h 9.3 km/h 60 % 0 mm
21:10 25 °C 16.9 °C 1005.3 hPa SSE 7.7 km/h 11.3 km/h 61 % 0 mm
21:15 24.8 °C 17 °C 1005.3 hPa SSE 6.3 km/h 14.8 km/h 62 % 0 mm
21:20 24.5 °C 16.7 °C 1005.6 hPa South 3.4 km/h 11.1 km/h 62 % 0 mm
21:25 24.3 °C 16.8 °C 1005.6 hPa South 1.9 km/h 5.6 km/h 63 % 0 mm
21:30 24.1 °C 16.8 °C 1005.6 hPa South 9.8 km/h 14.8 km/h 64 % 0 mm
21:35 23.8 °C 16.8 °C 1005.6 hPa South 7.1 km/h 11.3 km/h 65 % 0 mm
21:40 23.6 °C 16.9 °C 1005.6 hPa South 11.3 km/h 14.8 km/h 66 % 0 mm
21:45 23.4 °C 16.7 °C 1006 hPa South 7.2 km/h 16.1 km/h 66 % 0 mm
21:50 23.2 °C 16.8 °C 1006.3 hPa SSW 14.2 km/h 20.4 km/h 67 % 0 mm
21:55 23 °C 16.8 °C 1006.3 hPa South 10.5 km/h 18.5 km/h 68 % 0 mm
22:00 22.7 °C 16.7 °C 1006.3 hPa SSW 10.1 km/h 18.5 km/h 69 % 0 mm
22:05 22.5 °C 16.5 °C 1006.3 hPa SSE 5 km/h 16.7 km/h 69 % 0 mm
22:10 22.3 °C 16.6 °C 1006.3 hPa South 5.3 km/h 9.7 km/h 70 % 0 mm
22:15 22.2 °C 16.7 °C 1006.3 hPa South 3.1 km/h 5.6 km/h 71 % 0 mm
22:20 21.9 °C 16.7 °C 1006.3 hPa South 12.9 km/h 16.7 km/h 72 % 0 mm
22:25 21.8 °C 16.5 °C 1006.3 hPa South 5.6 km/h 14.8 km/h 72 % 0 mm
22:30 21.6 °C 16.3 °C 1006.3 hPa South 0.8 km/h 9.3 km/h 72 % 0 mm
22:35 21.5 °C 16.4 °C 1006.3 hPa South 5.6 km/h 9.7 km/h 73 % 0 mm
22:40 21.3 °C 16.5 °C 1006.3 hPa South 5.8 km/h 7.4 km/h 74 % 0 mm
22:45 21.3 °C 16.4 °C 1006.3 hPa South 5.5 km/h 9.3 km/h 74 % 0 mm
22:50 21.2 °C 16.3 °C 1006.3 hPa South 3.7 km/h 9.3 km/h 74 % 0 mm
22:55 21.1 °C 16.5 °C 1006.3 hPa North 7.1 km/h 9.3 km/h 75 % 0 mm
23:00 21 °C 16.4 °C 1006.3 hPa South 4.3 km/h 7.4 km/h 75 % 0 mm
23:05 20.9 °C 16.3 °C 1006.3 hPa South 1.8 km/h 3.7 km/h 75 % 0 mm
23:10 20.8 °C 16.4 °C 1006.3 hPa South 4.2 km/h 9.3 km/h 76 % 0 mm
23:15 20.7 °C 16.3 °C 1006.3 hPa North 9.3 km/h 13 km/h 76 % 0 mm
23:20 20.6 °C 16.4 °C 1006.3 hPa South 6.3 km/h 9.7 km/h 77 % 0 mm
23:25 20.5 °C 16.3 °C 1006.3 hPa South 7.7 km/h 8 km/h 77 % 0 mm
23:30 20.4 °C 16.3 °C 1006.3 hPa South 6.6 km/h 9.3 km/h 77 % 0 mm
23:35 20.3 °C 16.4 °C 1006.3 hPa South 4.8 km/h 11.1 km/h 78 % 0 mm
23:40 20.2 °C 16.3 °C 1006.3 hPa South 6 km/h 7.4 km/h 78 % 0 mm
23:45 20.1 °C 16.2 °C 1006.3 hPa South 7.7 km/h 11.1 km/h 78 % 0 mm
23:50 20 °C 16.2 °C 1006.3 hPa South 7.1 km/h 13 km/h 79 % 0 mm
23:55 19.9 °C 16.1 °C 1006 hPa South 6.9 km/h 11.1 km/h 79 % 0 mm
Ararat Weather
Compliments of Weather Underground - 2 mb
Click here to send mail.


ABOUT

Live weather data from Ararat, Victoria, Australia, 3377
Data uploaded from Cumulus every 5 minutes to Weather Underground.
This site then downloads the raw data for formatting and display.
Metric and imperial data can be displayed. Graphs and historical data available.
Includes Sun and Moon times and rain image live from BOM.

Check out Ararat Weather on Facebook, Twitter and Google +

Help support ongoing costs by checking out the ads





Follow @AraratWeather